Ny info om parkering ved Klubbhytta PDF Skriv ut E-post
Skrevet av Per Norgaard   
torsdag 17. desember 2015 11:11

Styret i klubben ønsker å korrigere/presisere følgende: All parkering ved Klubbhytta skal kun skje ifm klubbaktivitet. Avinor vil ikke akseptere privat parkering som ikke er klubbrelatert. Misbruk vil utløse bøter, og kan medføre oppsigelse av leieforholdet.

 

 
«StartForrige12345678NesteSiste»

Side 8 av 8
 
METAR
2021/04/14 23:50 ENCN 142350Z AUTO 00000KT 9999 OVC078/// 02/M03 Q1032
TAF
2021/04/14 15:38 TAF ENCN 141400Z 1415/1419 20008KT 9999 FEW040 SCT060= TAF ENHD 141400Z 1415/1420 34012KT 9999 FEW020TCU SCT050
LN-KFK
Operativ VFR-natt
VFR dag
05:34 - 21:23
Brannvakt
Inaktiv
Banner
Banner
Banner
Banner
Banner